Time;durP1;ratioP1;P1;durP2;ratioP2;P2;SDS_P1;SDS_P2;PMS_P1;PMS_P2;Temp;Humidity;BMP_temperature;BMP_pressure;BME280_temperature;BME280_humidity;BME280_pressure;Samples;Min_cycle;Max_cycle;Signal;HPM_P1;HPM_P2
2022/06/10 00:00:03;;;;;;;1.10;0.10;;;22.00;99.90;;;;;;5045282;28;20029;-71
2022/06/10 00:02:30;;;;;;;0.30;0.10;;;22.00;99.90;;;;;;5040950;28;20062;-71
2022/06/10 00:04:55;;;;;;;0.63;0.13;;;22.00;99.90;;;;;;5047089;28;20078;-71
2022/06/10 00:07:21;;;;;;;0.20;0.20;;;22.00;99.90;;;;;;5064884;28;20425;-70
2022/06/10 00:09:47;;;;;;;0.35;0.10;;;21.90;99.90;;;;;;5049103;28;20036;-72
2022/06/10 00:12:13;;;;;;;0.47;0.10;;;21.70;99.90;;;;;;5055542;28;20031;-71
2022/06/10 00:14:39;;;;;;;0.20;0.08;;;21.80;99.90;;;;;;5063768;28;20033;-72
2022/06/10 00:17:05;;;;;;;1.02;0.22;;;21.90;99.90;;;;;;5053913;28;20064;-72
2022/06/10 00:19:31;;;;;;;1.75;0.40;;;21.90;99.90;;;;;;5062306;28;20017;-71
2022/06/10 00:21:57;;;;;;;0.40;0.10;;;21.90;99.90;;;;;;5064739;28;20518;-72
2022/06/10 00:24:23;;;;;;;0.17;0.05;;;22.00;99.90;;;;;;5049622;28;20044;-72
2022/06/10 00:26:49;;;;;;;0.15;0.00;;;21.90;99.90;;;;;;5059649;28;20431;-72
2022/06/10 00:29:15;;;;;;;2.10;0.20;;;22.00;99.90;;;;;;5049651;28;20092;-71
2022/06/10 00:31:41;;;;;;;1.10;0.30;;;22.00;99.90;;;;;;5065712;28;20028;-72
2022/06/10 00:34:06;;;;;;;0.10;0.10;;;22.10;99.90;;;;;;5066724;28;20040;-72
2022/06/10 00:36:32;;;;;;;3.20;0.20;;;22.10;99.90;;;;;;5063001;28;20184;-70
2022/06/10 00:38:59;;;;;;;2.65;0.20;;;22.10;99.90;;;;;;5054933;28;20528;-71
2022/06/10 00:41:25;;;;;;;1.80;0.10;;;21.90;99.90;;;;;;5045414;28;20024;-72
2022/06/10 00:43:51;;;;;;;0.10;0.10;;;22.00;99.90;;;;;;5065425;28;20024;-71
2022/06/10 00:46:32;;;;;;;0.50;0.20;;;22.00;99.90;;;;;;5046934;28;20413;-71
2022/06/10 00:49:07;;;;;;;1.13;0.10;;;22.00;99.90;;;;;;5067877;28;20031;-71
2022/06/10 00:51:40;;;;;;;0.95;0.10;;;22.00;99.90;;;;;;5054140;28;20032;-70
2022/06/10 00:54:15;;;;;;;1.45;0.10;;;22.10;99.90;;;;;;5050622;28;20028;-72
2022/06/10 00:56:45;;;;;;;0.30;0.20;;;22.10;99.90;;;;;;5067543;28;20025;-71
2022/06/10 00:59:22;;;;;;;2.70;0.30;;;22.00;99.90;;;;;;5051594;28;20051;-72
2022/06/10 01:01:54;;;;;;;0.20;0.10;;;22.00;99.90;;;;;;5066680;28;20021;-71
2022/06/10 01:04:20;;;;;;;;;;;22.00;99.90;;;;;;5070103;28;20170;-72
2022/06/10 01:06:45;;;;;;;1.10;0.17;;;22.00;99.90;;;;;;5051812;28;20011;-72
2022/06/10 01:09:12;;;;;;;0.13;0.13;;;22.00;99.90;;;;;;5067506;28;20038;-71
2022/06/10 01:12:05;;;;;;;2.47;0.32;;;22.10;99.90;;;;;;5047436;28;20066;-72
2022/06/10 01:14:47;;;;;;;0.43;0.17;;;22.00;99.90;;;;;;5049196;28;20048;-71
2022/06/10 01:17:31;;;;;;;;;;;22.10;99.90;;;;;;5065271;28;20035;-72
2022/06/10 01:20:06;;;;;;;0.10;0.10;;;22.10;99.90;;;;;;5070272;28;19991;-71
2022/06/10 01:22:40;;;;;;;0.20;0.20;;;22.00;99.90;;;;;;5048038;28;20543;-71
2022/06/10 01:25:09;;;;;;;1.98;0.15;;;22.00;99.90;;;;;;5050063;28;20036;-72
2022/06/10 01:28:12;;;;;;;0.35;0.13;;;22.10;99.90;;;;;;5048357;28;20442;-72
2022/06/10 01:31:05;;;;;;;4.35;0.20;;;22.10;99.90;;;;;;5048888;28;20024;-71
2022/06/10 01:33:47;;;;;;;0.10;0.10;;;22.10;99.90;;;;;;5053611;28;20027;-72
2022/06/10 01:36:39;;;;;;;0.20;0.00;;;22.00;99.90;;;;;;5069082;28;20115;-72
2022/06/10 01:39:31;;;;;;;4.53;2.83;;;22.00;99.90;;;;;;5049587;28;20123;-71
2022/06/10 01:42:36;;;;;;;2.47;0.22;;;21.90;99.90;;;;;;5066276;28;20542;-72
2022/06/10 01:46:00;;;;;;;1.95;0.32;;;22.00;99.90;;;;;;5064155;28;20029;-71
2022/06/10 01:48:37;;;;;;;0.00;0.00;;;22.00;99.90;;;;;;5016694;28;20164;-72
2022/06/10 01:51:21;;;;;;;0.80;0.10;;;22.00;99.90;;;;;;5068416;28;20048;-70
2022/06/10 01:54:13;;;;;;;0.10;0.10;;;21.90;99.90;;;;;;5063637;28;20534;-73
2022/06/10 01:56:44;;;;;;;2.30;0.10;;;21.90;99.90;;;;;;5048018;28;20032;-71
2022/06/10 01:59:32;;;;;;;0.17;0.17;;;21.90;99.90;;;;;;5066331;28;20056;-72
2022/06/10 02:02:25;;;;;;;0.10;0.10;;;21.90;99.90;;;;;;5063426;28;20017;-70
2022/06/10 02:05:23;;;;;;;0.50;0.15;;;21.90;99.90;;;;;;5069095;28;20025;-71
2022/06/10 02:08:00;;;;;;;0.52;0.10;;;22.10;99.90;;;;;;5064783;28;20028;-71
2022/06/10 02:10:38;;;;;;;0.45;0.10;;;22.10;99.90;;;;;;5051778;28;20028;-71
2022/06/10 02:13:10;;;;;;;0.10;0.10;;;22.10;99.90;;;;;;5062258;28;20033;-70
2022/06/10 02:15:45;;;;;;;0.10;0.00;;;21.90;99.90;;;;;;5062005;28;20380;-70
2022/06/10 02:18:21;;;;;;;0.20;0.20;;;21.90;99.90;;;;;;5063068;28;20151;-71
2022/06/10 02:20:53;;;;;;;0.80;0.20;;;21.90;99.90;;;;;;5064923;28;20029;-70
2022/06/10 02:23:24;;;;;;;0.13;0.13;;;21.90;99.90;;;;;;5064433;28;20028;-71
2022/06/10 02:25:54;;;;;;;1.85;0.38;;;22.00;99.90;;;;;;5061686;28;20032;-71
2022/06/10 02:28:27;;;;;;;0.32;0.17;;;22.00;99.90;;;;;;5049811;28;20076;-70
2022/06/10 02:31:05;;;;;;;1.35;0.15;;;22.00;99.90;;;;;;5068195;28;20324;-72
2022/06/10 02:33:38;;;;;;;1.52;0.95;;;21.90;99.90;;;;;;5055074;28;20516;-73
2022/06/10 02:36:16;;;;;;;0.10;0.10;;;21.90;99.90;;;;;;5054843;28;20522;-71
2022/06/10 02:39:08;;;;;;;0.17;0.10;;;21.90;99.90;;;;;;5043971;28;20036;-73
2022/06/10 02:42:17;;;;;;;1.85;0.40;;;21.90;99.90;;;;;;5057999;28;20052;-73
2022/06/10 02:45:20;;;;;;;1.75;0.20;;;22.00;99.90;;;;;;5049599;28;20039;-70
2022/06/10 02:48:01;;;;;;;0.20;0.20;;;21.90;99.90;;;;;;5044551;28;20028;-71
2022/06/10 02:50:27;;;;;;;0.28;0.10;;;21.80;99.90;;;;;;5052115;28;20111;-70
2022/06/10 02:52:53;;;;;;;0.68;0.20;;;21.80;99.90;;;;;;5057940;28;20562;-70
2022/06/10 02:55:23;;;;;;;0.85;0.40;;;21.70;99.90;;;;;;5060748;28;20140;-71
2022/06/10 03:01:16;;;;;;;0.30;0.10;;;21.50;99.90;;;;;;5078028;28;20063;-71
2022/06/10 03:03:59;;;;;;;0.80;0.20;;;21.50;99.90;;;;;;5061741;28;20025;-72
2022/06/10 03:06:37;;;;;;;0.17;0.10;;;21.50;99.90;;;;;;5082607;28;20051;-69
2022/06/10 03:09:31;;;;;;;0.40;0.20;;;21.60;99.90;;;;;;5053572;28;20064;-71
2022/06/10 03:12:06;;;;;;;5.22;0.25;;;21.80;99.90;;;;;;5071191;28;20024;-72
2022/06/10 03:14:41;;;;;;;0.43;0.17;;;21.80;99.90;;;;;;5052256;28;20059;-69
2022/06/10 03:17:19;;;;;;;0.35;0.10;;;21.70;99.90;;;;;;5064203;28;20086;-72
2022/06/10 03:19:57;;;;;;;1.98;0.20;;;21.60;99.90;;;;;;5051693;28;20028;-71
2022/06/10 03:22:59;;;;;;;0.38;0.20;;;21.80;99.90;;;;;;5049153;28;20112;-71
2022/06/10 03:25:28;;;;;;;0.35;0.20;;;21.80;99.90;;;;;;5046806;28;20123;-71
2022/06/10 03:28:06;;;;;;;0.20;0.20;;;21.90;99.90;;;;;;5067774;28;20023;-71
2022/06/10 03:30:36;;;;;;;0.40;0.40;;;21.90;99.90;;;;;;5047881;28;20487;-71
2022/06/10 03:33:11;;;;;;;0.28;0.10;;;21.90;99.90;;;;;;5064317;28;20044;-71
2022/06/10 03:35:52;;;;;;;2.22;0.30;;;21.80;99.90;;;;;;5068140;28;20024;-72
2022/06/10 03:38:18;;;;;;;1.27;0.10;;;21.70;99.90;;;;;;5065628;28;20028;-72
2022/06/10 03:40:53;;;;;;;0.52;0.17;;;21.80;99.90;;;;;;5065799;28;20181;-71
2022/06/10 03:43:20;;;;;;;3.72;0.20;;;21.70;99.90;;;;;;5043397;28;20430;-72
2022/06/10 03:45:55;;;;;;;0.20;0.20;;;21.80;99.90;;;;;;5062745;28;20028;-73
2022/06/10 03:48:23;;;;;;;0.20;0.20;;;21.80;99.90;;;;;;5036863;28;20106;-71
2022/06/10 03:50:50;;;;;;;0.55;0.20;;;21.80;99.90;;;;;;5050699;28;20031;-71
2022/06/10 03:53:23;;;;;;;0.35;0.10;;;21.80;99.90;;;;;;5064997;28;20588;-72
2022/06/10 03:55:49;;;;;;;3.20;0.35;;;21.90;99.90;;;;;;5061800;28;21365;-72
2022/06/10 03:58:15;;;;;;;0.32;0.32;;;21.90;99.90;;;;;;5068457;28;20465;-72
2022/06/10 04:00:42;;;;;;;0.82;0.20;;;22.00;99.90;;;;;;5059518;28;20386;-71
2022/06/10 04:03:08;;;;;;;1.45;0.20;;;22.00;99.90;;;;;;5060537;28;20028;-72
2022/06/10 04:05:34;;;;;;;3.05;0.50;;;21.90;99.90;;;;;;5067394;28;20031;-72
2022/06/10 04:08:00;;;;;;;1.50;0.30;;;22.00;99.90;;;;;;5063411;28;20021;-72
2022/06/10 04:10:28;;;;;;;2.53;0.98;;;21.80;99.90;;;;;;5049660;28;20097;-72
2022/06/10 04:12:54;;;;;;;4.07;0.60;;;21.60;99.90;;;;;;5066250;28;20021;-71
2022/06/10 04:15:21;;;;;;;0.75;0.73;;;21.40;99.90;;;;;;5060503;28;20029;-71
2022/06/10 04:17:49;;;;;;;1.95;0.65;;;21.20;99.90;;;;;;5066920;28;20032;-71
2022/06/10 04:20:18;;;;;;;2.72;0.45;;;21.20;99.90;;;;;;5066280;28;20036;-70
2022/06/10 04:22:44;;;;;;;4.85;0.85;;;20.90;99.90;;;;;;5067365;28;20490;-75
2022/06/10 04:25:10;;;;;;;3.47;0.70;;;20.90;99.90;;;;;;5064756;28;20055;-72
2022/06/10 04:27:36;;;;;;;2.15;0.30;;;20.80;99.90;;;;;;5064277;28;20106;-72
2022/06/10 04:30:03;;;;;;;6.93;0.70;;;20.60;99.90;;;;;;5065714;28;20024;-72
2022/06/10 04:32:29;;;;;;;0.57;0.40;;;20.70;99.90;;;;;;5063493;28;20254;-71
2022/06/10 04:34:55;;;;;;;2.40;0.32;;;20.80;99.90;;;;;;5062911;28;20078;-72
2022/06/10 04:37:21;;;;;;;7.40;0.73;;;20.80;99.90;;;;;;5066603;28;20508;-72
2022/06/10 04:39:46;;;;;;;3.25;1.25;;;20.80;99.90;;;;;;5067863;28;20028;-72
2022/06/10 04:42:12;;;;;;;0.98;0.55;;;21.00;99.90;;;;;;5063491;28;20066;-73
2022/06/10 04:44:38;;;;;;;0.40;0.40;;;21.10;99.90;;;;;;5066428;28;20482;-73
2022/06/10 04:47:06;;;;;;;3.92;0.70;;;21.10;99.90;;;;;;5058207;28;20139;-72
2022/06/10 04:49:31;;;;;;;0.77;0.38;;;21.30;99.90;;;;;;5063332;28;20233;-73
2022/06/10 04:52:05;;;;;;;3.15;0.52;;;21.40;99.90;;;;;;5061118;28;20025;-73
2022/06/10 04:54:31;;;;;;;1.10;0.40;;;21.50;99.90;;;;;;5057833;28;21501;-72
2022/06/10 04:56:57;;;;;;;1.08;0.60;;;21.70;99.90;;;;;;5052900;28;20048;-74
2022/06/10 04:59:31;;;;;;;2.67;0.80;;;21.80;99.90;;;;;;5051179;28;20025;-74
2022/06/10 05:01:59;;;;;;;1.58;0.70;;;21.90;99.90;;;;;;5044828;28;20032;-73
2022/06/10 05:04:25;;;;;;;0.43;0.43;;;22.00;99.90;;;;;;5037758;28;20033;-74
2022/06/10 05:06:51;;;;;;;1.83;0.90;;;21.90;99.90;;;;;;5056571;28;20131;-73
2022/06/10 05:09:17;;;;;;;5.10;0.90;;;21.90;99.90;;;;;;5036968;28;20029;-71
2022/06/10 05:11:43;;;;;;;2.25;0.65;;;22.00;99.90;;;;;;5042502;28;20052;-73
2022/06/10 05:14:10;;;;;;;4.28;0.70;;;22.10;99.90;;;;;;5056326;28;20059;-72
2022/06/10 05:16:36;;;;;;;0.50;0.50;;;22.20;99.90;;;;;;5056802;28;20021;-71
2022/06/10 05:19:02;;;;;;;1.55;0.57;;;22.20;99.90;;;;;;5042422;28;20451;-72
2022/06/10 05:21:28;;;;;;;3.05;0.80;;;22.50;99.90;;;;;;5054099;28;20050;-70
2022/06/10 05:23:54;;;;;;;1.02;0.30;;;22.50;99.90;;;;;;5039409;28;20021;-73
2022/06/10 05:26:20;;;;;;;1.50;1.40;;;22.70;99.90;;;;;;5040011;28;20099;-71
2022/06/10 05:28:49;;;;;;;3.15;0.40;;;22.80;99.90;;;;;;5040459;28;20503;-72
2022/06/10 05:31:15;;;;;;;2.63;0.40;;;22.70;99.90;;;;;;5041899;28;20487;-71
2022/06/10 05:36:25;;;;;;;2.38;0.50;;;22.50;99.90;;;;;;5058031;28;20039;-72
2022/06/10 05:38:51;;;;;;;2.38;1.40;;;22.50;99.90;;;;;;5068712;28;20119;-73
2022/06/10 05:44:01;;;;;;;2.03;1.40;;;22.70;99.90;;;;;;5064686;28;20343;-72
2022/06/10 05:46:28;;;;;;;2.53;1.45;;;22.90;99.90;;;;;;5067279;28;20028;-73
2022/06/10 05:48:53;;;;;;;4.57;0.80;;;23.10;99.90;;;;;;5066913;28;20028;-72
2022/06/10 05:51:19;;;;;;;4.22;1.35;;;23.00;99.90;;;;;;5064363;28;20085;-72
2022/06/10 05:53:45;;;;;;;3.65;1.00;;;23.10;99.90;;;;;;5061824;28;20025;-72
2022/06/10 05:56:11;;;;;;;2.42;0.70;;;23.10;99.90;;;;;;5065936;28;20025;-72
2022/06/10 05:58:37;;;;;;;6.63;0.43;;;23.20;99.90;;;;;;5064745;28;20021;-71
2022/06/10 06:01:03;;;;;;;0.70;0.70;;;23.30;99.90;;;;;;5052729;28;20035;-72
2022/06/10 06:03:29;;;;;;;7.05;1.50;;;23.50;99.90;;;;;;5071903;28;20024;-71
2022/06/10 06:05:55;;;;;;;0.47;0.40;;;23.60;99.90;;;;;;5074611;28;20032;-73
2022/06/10 06:08:21;;;;;;;3.15;2.22;;;23.80;99.90;;;;;;5064602;28;20110;-72
2022/06/10 06:10:46;;;;;;;3.58;1.27;;;23.90;99.90;;;;;;5061282;28;20091;-73
2022/06/10 06:13:12;;;;;;;2.95;0.88;;;23.80;99.90;;;;;;5069773;28;20543;-71
2022/06/10 06:15:39;;;;;;;3.35;0.50;;;23.70;99.90;;;;;;5059483;28;20402;-73
2022/06/10 06:18:05;;;;;;;0.22;0.22;;;23.70;99.90;;;;;;5065435;28;20890;-73
2022/06/10 06:20:31;;;;;;;1.25;0.70;;;24.00;99.90;;;;;;5064471;28;20036;-72
2022/06/10 06:22:57;;;;;;;3.92;0.70;;;24.20;99.90;;;;;;5068032;28;20031;-71
2022/06/10 06:25:23;;;;;;;1.27;0.60;;;24.60;99.90;;;;;;5067939;28;20029;-71
2022/06/10 06:27:50;;;;;;;5.07;0.68;;;24.80;99.90;;;;;;5045630;28;20087;-72
2022/06/10 06:30:19;;;;;;;0.40;0.38;;;24.40;99.90;;;;;;5067460;28;20470;-73
2022/06/10 06:32:45;;;;;;;2.10;0.30;;;24.40;99.90;;;;;;5068658;28;20048;-72
2022/06/10 06:35:11;;;;;;;1.25;0.40;;;24.40;99.90;;;;;;5069073;28;20047;-72
2022/06/10 06:37:37;;;;;;;2.25;0.22;;;24.40;99.90;;;;;;5048190;28;20471;-72
2022/06/10 06:40:04;;;;;;;0.30;0.20;;;24.60;99.90;;;;;;5064951;28;20119;-71
2022/06/10 06:42:30;;;;;;;0.30;0.20;;;24.60;99.90;;;;;;5068708;28;20134;-71
2022/06/10 06:44:55;;;;;;;2.40;0.63;;;24.60;99.90;;;;;;5059655;28;20417;-65
2022/06/10 06:47:21;;;;;;;4.22;0.52;;;24.60;99.90;;;;;;5063150;28;20036;-65
2022/06/10 06:49:47;;;;;;;3.90;1.05;;;24.50;99.90;;;;;;5063571;28;20781;-67
2022/06/10 06:52:13;;;;;;;3.88;0.82;;;24.40;99.90;;;;;;5068439;28;20024;-66
2022/06/10 06:54:39;;;;;;;0.52;0.20;;;24.40;99.90;;;;;;5064730;28;20047;-66
2022/06/10 06:57:05;;;;;;;0.30;0.30;;;24.50;99.90;;;;;;5063956;28;20032;-64
2022/06/10 06:59:32;;;;;;;0.10;0.08;;;24.40;99.90;;;;;;5062502;28;21509;-66
2022/06/10 07:01:58;;;;;;;5.47;0.75;;;24.40;99.90;;;;;;5066249;28;20104;-66
2022/06/10 07:04:24;;;;;;;3.97;0.60;;;24.40;99.90;;;;;;5049943;28;20108;-65
2022/06/10 07:06:50;;;;;;;0.20;0.20;;;24.60;99.90;;;;;;5065792;28;20020;-65
2022/06/10 07:09:16;;;;;;;0.65;0.40;;;24.60;99.90;;;;;;5039544;28;20122;-64
2022/06/10 07:11:42;;;;;;;0.20;0.20;;;24.60;99.90;;;;;;5067206;28;20025;-65
2022/06/10 07:14:07;;;;;;;0.40;0.22;;;24.60;99.90;;;;;;5055425;28;20052;-65
2022/06/10 07:16:33;;;;;;;1.83;0.65;;;24.70;99.90;;;;;;5044782;28;21931;-64
2022/06/10 07:18:59;;;;;;;2.17;0.20;;;24.70;99.90;;;;;;5055206;28;20036;-65
2022/06/10 07:21:27;;;;;;;1.35;0.30;;;24.70;99.90;;;;;;5057719;28;20025;-66
2022/06/10 07:23:53;;;;;;;0.40;0.25;;;24.80;99.90;;;;;;5046306;28;20055;-59
2022/06/10 07:26:19;;;;;;;1.83;0.30;;;24.80;99.90;;;;;;5057813;28;20037;-65
2022/06/10 07:28:45;;;;;;;1.05;0.38;;;24.60;99.90;;;;;;5064743;28;20020;-62
2022/06/10 07:31:11;;;;;;;0.30;0.30;;;24.50;99.90;;;;;;5066476;28;20021;-61
2022/06/10 07:33:37;;;;;;;0.77;0.40;;;24.60;99.90;;;;;;5067659;28;20480;-60
2022/06/10 07:36:06;;;;;;;0.30;0.30;;;24.70;99.90;;;;;;5069187;28;20024;-64
2022/06/10 07:38:34;;;;;;;0.22;0.20;;;24.80;99.90;;;;;;5064674;28;20422;-62
2022/06/10 07:43:44;;;;;;;6.32;0.52;;;25.10;99.90;;;;;;5066836;28;20024;-64
2022/06/10 07:46:13;;;;;;;1.08;0.28;;;25.10;99.90;;;;;;5064366;28;20024;-68
2022/06/10 07:48:39;;;;;;;1.85;0.43;;;25.30;99.90;;;;;;5061244;28;21478;-68
2022/06/10 07:51:05;;;;;;;2.35;0.30;;;25.30;99.90;;;;;;5067433;28;20028;-68
2022/06/10 07:53:31;;;;;;;2.70;0.32;;;25.30;99.90;;;;;;5068272;28;20024;-68
2022/06/10 07:55:58;;;;;;;0.82;0.40;;;25.50;99.90;;;;;;5069068;28;20371;-68
2022/06/10 07:58:28;;;;;;;0.30;0.20;;;25.50;99.90;;;;;;5064677;28;20111;-67
2022/06/10 08:00:55;;;;;;;0.80;0.30;;;25.40;99.90;;;;;;5068658;28;20036;-68
2022/06/10 08:03:20;;;;;;;0.80;0.50;;;25.40;99.90;;;;;;5068686;28;20274;-68
2022/06/10 08:05:46;;;;;;;4.85;0.68;;;25.40;99.90;;;;;;5052495;28;20024;-68
2022/06/10 08:08:16;;;;;;;0.95;0.73;;;25.20;99.90;;;;;;5052400;28;20488;-68
2022/06/10 08:10:43;;;;;;;3.22;0.40;;;24.90;99.90;;;;;;5052151;28;20024;-68
2022/06/10 08:13:09;;;;;;;5.13;0.50;;;24.70;99.90;;;;;;5066198;28;20498;-68
2022/06/10 08:15:36;;;;;;;1.70;0.60;;;24.80;99.90;;;;;;5060488;28;20039;-68
2022/06/10 08:18:03;;;;;;;1.10;0.40;;;25.10;99.90;;;;;;5068632;28;20039;-69
2022/06/10 08:23:21;;;;;;;0.98;0.52;;;25.10;99.90;;;;;;5070702;28;20036;-67
2022/06/10 08:25:48;;;;;;;1.20;0.30;;;25.10;99.90;;;;;;5052280;28;20115;-68
2022/06/10 08:28:14;;;;;;;0.45;0.40;;;25.20;99.90;;;;;;5050795;28;20524;-68
2022/06/10 08:30:40;;;;;;;4.57;0.55;;;25.30;99.90;;;;;;5067377;28;20028;-68
2022/06/10 08:33:06;;;;;;;4.68;0.60;;;25.30;99.90;;;;;;5066913;28;20037;-69
2022/06/10 08:35:33;;;;;;;7.90;0.65;;;25.30;99.90;;;;;;5067386;28;20347;-68
2022/06/10 08:38:00;;;;;;;1.40;0.50;;;25.40;99.90;;;;;;5064577;28;20478;-68
2022/06/10 08:40:45;;;;;;;1.85;0.70;;;25.60;99.90;;;;;;5064775;28;20496;-69
2022/06/10 08:43:29;;;;;;;1.00;0.88;;;25.90;99.90;;;;;;5049260;28;20039;-69
2022/06/10 08:46:26;;;;;;;6.60;0.60;;;26.20;99.90;;;;;;5051539;28;20021;-69
2022/06/10 08:49:24;;;;;;;6.13;1.00;;;26.50;99.90;;;;;;5051069;28;20157;-69
2022/06/10 08:51:55;;;;;;;5.10;1.05;;;26.10;99.90;;;;;;5041685;28;20190;-68
2022/06/10 08:54:46;;;;;;;1.75;0.70;;;25.70;99.90;;;;;;5068058;28;20029;-68
2022/06/10 08:57:39;;;;;;;4.50;0.80;;;25.20;99.90;;;;;;5050409;28;20064;-69
2022/06/10 09:00:18;;;;;;;2.60;0.65;;;25.40;99.90;;;;;;5067440;28;20028;-68
2022/06/10 09:02:54;;;;;;;1.15;0.77;;;25.30;99.90;;;;;;5069854;28;20028;-67
2022/06/10 09:05:29;;;;;;;2.70;0.65;;;25.00;99.90;;;;;;5053602;28;20518;-70
2022/06/10 09:08:05;;;;;;;4.32;0.50;;;25.00;99.90;;;;;;5067180;28;20024;-69
2022/06/10 09:10:41;;;;;;;1.77;0.80;;;25.30;99.90;;;;;;5051631;28;20083;-70
2022/06/10 09:13:13;;;;;;;3.35;0.82;;;25.50;99.90;;;;;;5066119;28;20051;-69
2022/06/10 09:15:57;;;;;;;5.78;0.90;;;25.30;99.90;;;;;;5053460;28;20031;-69
2022/06/10 09:18:59;;;;;;;1.95;0.55;;;25.40;99.90;;;;;;5071902;28;20035;-70
2022/06/10 09:21:46;;;;;;;2.22;0.60;;;25.40;99.90;;;;;;5071674;28;20081;-68
2022/06/10 09:24:25;;;;;;;3.72;0.50;;;25.40;99.90;;;;;;5057830;28;20205;-69
2022/06/10 09:27:12;;;;;;;4.43;0.77;;;25.30;99.90;;;;;;5059717;28;20115;-67
2022/06/10 09:29:40;;;;;;;1.23;0.80;;;25.40;99.90;;;;;;5048649;28;20021;-69
2022/06/10 09:32:05;;;;;;;1.20;0.43;;;25.40;99.90;;;;;;5069745;28;20028;-69
2022/06/10 09:34:52;;;;;;;2.05;0.75;;;25.60;99.90;;;;;;5076636;28;20117;-70
2022/06/10 09:37:26;;;;;;;2.95;0.50;;;25.90;99.90;;;;;;5064771;28;20051;-69
2022/06/10 09:43:33;;;;;;;1.42;0.70;;;26.80;99.90;;;;;;5067929;28;20078;-68
2022/06/10 09:46:26;;;;;;;1.30;0.80;;;26.90;99.90;;;;;;5052909;28;20031;-69
2022/06/10 09:49:00;;;;;;;0.60;0.52;;;26.80;99.90;;;;;;5047136;28;20021;-69
2022/06/10 09:52:03;;;;;;;0.60;0.50;;;26.70;99.90;;;;;;5053518;28;20111;-70
2022/06/10 09:54:49;;;;;;;2.92;0.45;;;27.20;99.90;;;;;;5052058;28;20029;-69
2022/06/10 09:57:27;;;;;;;0.60;0.60;;;27.50;99.90;;;;;;5035244;28;20018;-69
2022/06/10 10:00:20;;;;;;;0.10;0.10;;;27.50;99.90;;;;;;5071422;28;20025;-69
2022/06/10 10:03:05;;;;;;;0.60;0.60;;;27.70;99.90;;;;;;5054423;28;20487;-67
2022/06/10 10:05:35;;;;;;;4.35;0.40;;;27.20;99.90;;;;;;5034108;28;20025;-69
2022/06/10 10:08:13;;;;;;;0.35;0.35;;;27.10;99.90;;;;;;5034250;28;20071;-68
2022/06/10 10:10:45;;;;;;;1.02;1.00;;;27.10;99.90;;;;;;5052067;28;20029;-69
2022/06/10 10:13:26;;;;;;;0.20;0.20;;;26.80;99.90;;;;;;5034354;28;20140;-70
2022/06/10 10:15:58;;;;;;;0.43;0.25;;;26.50;99.90;;;;;;5058322;28;20027;-68
2022/06/10 10:18:45;;;;;;;2.58;0.47;;;26.60;99.90;;;;;;5077312;28;20027;-70
2022/06/10 10:21:33;;;;;;;0.38;0.30;;;26.60;99.90;;;;;;5074207;28;20057;-69
2022/06/10 10:23:59;;;;;;;1.90;0.28;;;26.80;99.90;;;;;;5057669;28;20020;-69
2022/06/10 10:26:45;;;;;;;1.30;0.30;;;26.90;99.90;;;;;;5053738;28;20024;-68
2022/06/10 10:29:23;;;;;;;1.10;0.50;;;26.80;99.90;;;;;;5085982;28;20753;-69
2022/06/10 10:32:12;;;;;;;3.40;0.60;;;26.80;99.90;;;;;;5070477;28;20078;-69
2022/06/10 10:34:41;;;;;;;0.90;0.50;;;26.70;99.90;;;;;;5052927;28;20162;-68
2022/06/10 10:37:24;;;;;;;2.15;0.75;;;26.50;99.90;;;;;;5070576;28;20025;-69
2022/06/10 10:40:03;;;;;;;3.30;0.32;;;26.70;99.90;;;;;;5067682;28;20518;-69
2022/06/10 10:42:36;;;;;;;2.75;0.30;;;26.70;99.90;;;;;;5068337;28;20138;-69
2022/06/10 10:45:05;;;;;;;3.72;0.40;;;26.80;99.90;;;;;;5063343;28;20032;-70
2022/06/10 10:47:32;;;;;;;0.38;0.38;;;26.70;99.90;;;;;;5046484;28;20023;-68
2022/06/10 10:50:03;;;;;;;0.75;0.17;;;26.50;99.90;;;;;;5064999;28;20394;-68
2022/06/10 10:52:42;;;;;;;0.40;0.20;;;26.30;99.90;;;;;;5053412;28;20038;-69
2022/06/10 10:55:13;;;;;;;1.00;0.47;;;26.20;99.90;;;;;;5070320;28;20037;-69
2022/06/10 10:57:58;;;;;;;0.80;0.80;;;26.40;99.90;;;;;;5053354;28;20032;-69
2022/06/10 11:00:44;;;;;;;1.65;0.40;;;27.00;99.90;;;;;;5051239;28;20029;-68
2022/06/10 11:03:32;;;;;;;0.60;0.28;;;27.30;99.90;;;;;;5068042;28;20035;-68
2022/06/10 11:06:01;;;;;;;0.90;0.40;;;27.20;99.90;;;;;;5070187;28;20071;-70
2022/06/10 11:08:38;;;;;;;0.32;0.32;;;27.20;99.90;;;;;;5068855;28;20040;-69
2022/06/10 11:11:15;;;;;;;1.75;0.55;;;27.10;99.90;;;;;;5050285;28;20036;-68
2022/06/10 11:13:41;;;;;;;1.00;1.00;;;27.00;99.90;;;;;;5069973;28;20028;-69
2022/06/10 11:16:31;;;;;;;1.42;0.60;;;27.20;99.90;;;;;;5049949;28;20093;-68
2022/06/10 11:19:38;;;;;;;3.40;0.50;;;27.10;99.90;;;;;;5051953;28;20462;-68
2022/06/10 11:22:04;;;;;;;1.90;1.27;;;27.20;99.90;;;;;;5069980;28;20020;-68
2022/06/10 11:24:38;;;;;;;10.40;0.88;;;27.10;99.90;;;;;;5053113;28;20024;-69
2022/06/10 11:27:39;;;;;;;2.35;0.30;;;27.20;99.90;;;;;;5069758;28;20020;-68
2022/06/10 11:30:11;;;;;;;0.30;0.20;;;27.10;99.90;;;;;;5050199;28;20058;-70
2022/06/10 11:32:47;;;;;;;0.68;0.35;;;27.10;99.90;;;;;;5052260;28;20039;-70
2022/06/10 11:35:41;;;;;;;2.42;0.28;;;27.20;99.90;;;;;;5051931;28;20114;-70
2022/06/10 11:38:21;;;;;;;0.93;0.50;;;27.20;99.90;;;;;;5057099;28;20082;-69
2022/06/10 11:40:47;;;;;;;2.30;0.30;;;27.40;99.90;;;;;;5063342;28;20490;-69
2022/06/10 11:43:33;;;;;;;2.33;0.73;;;27.40;99.90;;;;;;5051700;28;20043;-69
2022/06/10 11:46:02;;;;;;;3.70;0.70;;;27.40;99.90;;;;;;5056676;28;20029;-69
2022/06/10 11:48:53;;;;;;;4.55;0.50;;;27.40;99.90;;;;;;5048081;28;20111;-68
2022/06/10 11:51:44;;;;;;;1.95;0.60;;;27.40;99.90;;;;;;5068275;28;20041;-69
2022/06/10 11:54:26;;;;;;;0.80;0.30;;;27.40;99.90;;;;;;5069348;28;20039;-69
2022/06/10 11:59:57;;;;;;;2.28;0.28;;;27.50;99.90;;;;;;5065295;28;20710;-70
2022/06/10 12:02:38;;;;;;;11.02;1.00;;;27.60;99.90;;;;;;5052030;28;20028;-69
2022/06/10 12:05:36;;;;;;;0.90;0.38;;;27.60;99.90;;;;;;5049142;28;20021;-68
2022/06/10 12:08:31;;;;;;;1.20;0.77;;;27.50;99.90;;;;;;5052474;28;20052;-70
2022/06/10 12:11:02;;;;;;;2.50;0.60;;;27.60;99.90;;;;;;5032386;28;20028;-69
2022/06/10 12:13:33;;;;;;;;;;;27.80;99.90;;;;;;5062076;28;20021;-69
2022/06/10 12:15:59;;;;;;;9.65;1.13;;;27.90;99.90;;;;;;5066439;28;19908;-69
2022/06/10 12:18:29;;;;;;;1.55;1.20;;;27.80;99.90;;;;;;5050073;28;20021;-68
2022/06/10 12:20:59;;;;;;;0.50;0.50;;;27.50;99.90;;;;;;5054456;28;20021;-68
2022/06/10 12:23:31;;;;;;;1.33;0.50;;;27.20;99.90;;;;;;5069398;28;20039;-70
2022/06/10 12:26:42;;;;;;;1.55;0.80;;;27.20;99.90;;;;;;5069273;28;20312;-69
2022/06/10 12:29:43;;;;;;;2.03;0.60;;;27.00;99.90;;;;;;5052334;28;20028;-69
2022/06/10 12:32:36;;;;;;;0.50;0.50;;;26.80;99.90;;;;;;5046557;28;20035;-68
2022/06/10 12:35:20;;;;;;;1.80;0.52;;;26.70;99.90;;;;;;5068929;28;20115;-69
2022/06/10 12:37:49;;;;;;;0.90;0.50;;;26.70;99.90;;;;;;5052044;28;20032;-68
2022/06/10 12:40:26;;;;;;;4.47;0.73;;;26.80;99.90;;;;;;5055628;28;20027;-70
2022/06/10 12:43:09;;;;;;;3.50;0.50;;;26.70;99.90;;;;;;5072685;28;20104;-70
2022/06/10 12:45:55;;;;;;;6.68;0.73;;;26.80;99.90;;;;;;5041545;28;20028;-70
2022/06/10 12:48:42;;;;;;;1.20;0.50;;;26.80;99.90;;;;;;5052058;28;20058;-70
2022/06/10 12:51:26;;;;;;;0.85;0.57;;;26.70;99.90;;;;;;5065058;28;20100;-70
2022/06/10 12:54:13;;;;;;;5.35;0.90;;;26.70;99.90;;;;;;5055311;28;20490;-70
2022/06/10 12:56:39;;;;;;;1.00;1.00;;;26.80;99.90;;;;;;5054717;28;20036;-71
2022/06/10 12:59:08;;;;;;;3.00;0.50;;;27.10;99.90;;;;;;5069414;28;20032;-70
2022/06/10 13:01:34;;;;;;;3.13;0.60;;;27.40;99.90;;;;;;5053379;28;20027;-70
2022/06/10 13:04:04;;;;;;;1.13;0.95;;;27.50;99.90;;;;;;5047942;28;20123;-69
2022/06/10 13:06:42;;;;;;;1.13;1.00;;;27.50;99.90;;;;;;5055686;28;20178;-69
2022/06/10 13:09:11;;;;;;;1.95;0.40;;;27.50;99.90;;;;;;5055478;28;20081;-69
2022/06/10 13:11:39;;;;;;;1.58;0.90;;;27.50;99.90;;;;;;5056286;28;20035;-69
2022/06/10 13:14:18;;;;;;;0.80;0.80;;;27.40;99.90;;;;;;5054045;28;20063;-67
2022/06/10 13:16:48;;;;;;;0.55;0.55;;;27.60;99.90;;;;;;5062290;28;20054;-68
2022/06/10 13:19:37;;;;;;;0.85;0.85;;;27.90;99.90;;;;;;5050474;28;20120;-69
2022/06/10 13:22:22;;;;;;;0.95;0.70;;;27.80;99.90;;;;;;5054547;28;20048;-69
2022/06/10 13:24:53;;;;;;;1.10;1.10;;;27.80;99.90;;;;;;5048415;28;20439;-70
2022/06/10 13:27:27;;;;;;;3.15;0.70;;;27.80;99.90;;;;;;5048723;28;20024;-69
2022/06/10 13:29:56;;;;;;;1.33;0.63;;;27.90;99.90;;;;;;5068787;28;20043;-70
2022/06/10 13:32:22;;;;;;;0.90;0.90;;;28.30;99.90;;;;;;5070252;28;20025;-70
2022/06/10 13:34:57;;;;;;;1.88;0.85;;;28.60;99.90;;;;;;5065208;28;20025;-70
2022/06/10 13:37:26;;;;;;;0.85;0.85;;;28.70;99.90;;;;;;5067161;28;20085;-70
2022/06/10 13:39:57;;;;;;;2.38;1.50;;;28.50;99.90;;;;;;5071334;28;20028;-70
2022/06/10 13:42:33;;;;;;;0.65;0.52;;;28.60;99.90;;;;;;5072111;28;20025;-70